Time;durP1;ratioP1;P1;durP2;ratioP2;P2;SDS_P1;SDS_P2;PMS_P1;PMS_P2;Temp;Humidity;BMP_temperature;BMP_pressure;BME280_temperature;BME280_humidity;BME280_pressure;Samples;Min_cycle;Max_cycle;Signal;HPM_P1;HPM_P2
2022/09/03 00:00:12;;;;;;;11.85;10.50;;;12.70;99.90;;;;;;20459929;28;20047;-58
2022/09/03 00:10:34;;;;;;;12.75;11.23;;;12.80;99.90;;;;;;20471783;29;20043;-58
2022/09/03 00:20:51;;;;;;;12.38;11.00;;;12.90;99.90;;;;;;20551590;28;20100;-53
2022/09/03 00:31:06;;;;;;;13.07;9.88;;;13.00;99.90;;;;;;20742070;28;20041;-52
2022/09/03 00:41:32;;;;;;;12.07;10.88;;;12.90;99.90;;;;;;20736927;28;20034;-53
2022/09/03 00:52:01;;;;;;;12.90;11.52;;;12.90;99.90;;;;;;20743834;28;20080;-59
2022/09/03 01:02:37;;;;;;;13.30;11.90;;;12.80;99.90;;;;;;20735041;28;20045;-58
2022/09/03 01:12:57;;;;;;;15.27;12.93;;;12.80;99.90;;;;;;20462254;29;20087;-51
2022/09/03 01:23:20;;;;;;;19.43;15.33;;;12.60;99.90;;;;;;20459169;28;20043;-58
2022/09/03 01:33:43;;;;;;;21.25;17.73;;;12.20;99.90;;;;;;20456355;29;20103;-52
2022/09/03 01:44:12;;;;;;;24.35;19.20;;;11.70;99.90;;;;;;20577594;28;20077;-49
2022/09/03 01:54:49;;;;;;;27.33;19.70;;;11.50;99.90;;;;;;20735492;28;20050;-52
2022/09/03 02:05:16;;;;;;;29.08;21.83;;;11.40;99.90;;;;;;20701806;28;20383;-58
2022/09/03 02:15:22;;;;;;;30.17;22.63;;;11.30;99.90;;;;;;20735342;28;20042;-52
2022/09/03 02:25:34;;;;;;;26.95;21.70;;;11.20;99.90;;;;;;20733131;28;20546;-58
2022/09/03 02:35:39;;;;;;;25.15;19.88;;;11.30;99.90;;;;;;20749207;28;20092;-51
2022/09/03 02:45:46;;;;;;;22.45;18.67;;;11.40;99.90;;;;;;20765408;28;20118;-59
2022/09/03 02:55:49;;;;;;;20.67;17.55;;;11.50;99.90;;;;;;20733761;28;20045;-58
2022/09/03 03:05:55;;;;;;;16.77;14.30;;;11.60;99.90;;;;;;20747636;28;20053;-58
2022/09/03 03:16:07;;;;;;;16.20;13.93;;;11.80;99.90;;;;;;20711331;28;20357;-52
2022/09/03 03:26:13;;;;;;;17.15;14.98;;;12.10;99.90;;;;;;20758230;28;20042;-52
2022/09/03 03:36:16;;;;;;;15.45;13.50;;;12.10;99.90;;;;;;20732420;28;20057;-58
2022/09/03 03:46:18;;;;;;;15.93;12.65;;;12.20;99.90;;;;;;20746852;28;20054;-52
2022/09/03 03:56:22;;;;;;;13.23;11.82;;;12.10;99.90;;;;;;20748676;28;20034;-58
2022/09/03 04:06:24;;;;;;;13.48;10.77;;;11.90;99.90;;;;;;20747470;28;20442;-58
2022/09/03 04:16:28;;;;;;;11.13;9.52;;;11.90;99.90;;;;;;20731066;28;20041;-52
2022/09/03 04:26:32;;;;;;;10.18;9.07;;;11.90;99.90;;;;;;20725540;28;20048;-52
2022/09/03 04:36:36;;;;;;;9.25;8.32;;;11.70;99.90;;;;;;20742945;28;20030;-52
2022/09/03 04:46:39;;;;;;;8.95;7.85;;;11.30;99.90;;;;;;20764520;28;20104;-59
2022/09/03 04:56:42;;;;;;;10.60;8.35;;;11.10;99.90;;;;;;20772629;28;20700;-52
2022/09/03 05:06:44;;;;;;;10.98;8.73;;;10.90;99.90;;;;;;20707516;28;20090;-52
2022/09/03 05:16:49;;;;;;;11.82;8.38;;;10.60;99.90;;;;;;20755162;28;20041;-49
2022/09/03 05:26:51;;;;;;;9.10;7.38;;;10.50;99.90;;;;;;20738201;28;20092;-58
2022/09/03 05:36:57;;;;;;;10.18;7.18;;;10.70;99.90;;;;;;20758768;28;20449;-52
2022/09/03 05:47:00;;;;;;;6.63;5.93;;;11.00;99.90;;;;;;20717377;28;20494;-51
2022/09/03 05:57:03;;;;;;;6.25;5.50;;;11.40;99.90;;;;;;20726443;28;20430;-58
2022/09/03 06:07:06;;;;;;;6.43;5.70;;;11.70;99.90;;;;;;20739390;28;20065;-53
2022/09/03 06:17:10;;;;;;;6.47;5.05;;;12.00;99.90;;;;;;20780002;28;20414;-58
2022/09/03 06:27:12;;;;;;;5.07;4.28;;;12.40;99.90;;;;;;20735576;28;20034;-55
2022/09/03 06:37:15;;;;;;;4.13;3.70;;;13.00;99.90;;;;;;20747552;28;20030;-58
2022/09/03 06:47:17;;;;;;;5.55;4.07;;;13.70;99.90;;;;;;20742462;28;20081;-53
2022/09/03 06:57:20;;;;;;;4.22;3.08;;;14.40;99.90;;;;;;20721321;28;20073;-53
2022/09/03 07:07:22;;;;;;;4.60;2.90;;;15.20;99.90;;;;;;20762110;28;20033;-59
2022/09/03 07:17:26;;;;;;;3.72;3.00;;;16.10;99.90;;;;;;20798263;28;20108;-59
2022/09/03 07:27:29;;;;;;;3.97;2.38;;;17.50;99.90;;;;;;20747851;28;20446;-54
2022/09/03 07:37:32;;;;;;;2.88;2.35;;;17.90;99.90;;;;;;20752971;28;20041;-56
2022/09/03 07:47:36;;;;;;;3.22;2.70;;;18.60;99.90;;;;;;20777711;28;20042;-59
2022/09/03 07:57:39;;;;;;;2.17;1.98;;;19.10;99.90;;;;;;20729190;28;20034;-52
2022/09/03 08:07:41;;;;;;;3.03;2.25;;;18.70;99.90;;;;;;20747141;28;20188;-57
2022/09/03 08:17:45;;;;;;;3.13;2.67;;;19.20;99.90;;;;;;20767061;28;20045;-54
2022/09/03 08:27:47;;;;;;;2.63;2.42;;;19.40;99.90;;;;;;20709957;28;20096;-59
2022/09/03 08:37:52;;;;;;;3.22;2.85;;;19.10;99.90;;;;;;20725435;28;20042;-59
2022/09/03 08:48:17;;;;;;;2.63;2.08;;;19.30;99.90;;;;;;20749444;28;20081;-55
2022/09/03 08:58:24;;;;;;;3.17;2.65;;;19.20;99.90;;;;;;20740959;28;20037;-57
2022/09/03 09:09:08;;;;;;;4.50;2.97;;;20.50;99.90;;;;;;20741330;28;20034;-57
2022/09/03 09:19:36;;;;;;;4.32;3.20;;;21.50;98.30;;;;;;20485092;28;20047;-59
2022/09/03 09:29:39;;;;;;;3.10;2.80;;;21.10;99.30;;;;;;20459785;28;20051;-60
2022/09/03 09:39:55;;;;;;;3.17;2.88;;;20.40;99.90;;;;;;20460852;29;20047;-56
2022/09/03 09:50:01;;;;;;;3.28;2.97;;;20.60;99.90;;;;;;20544354;28;20050;-56
2022/09/03 10:00:13;;;;;;;3.00;2.70;;;21.10;99.90;;;;;;20720625;28;20042;-55
2022/09/03 10:10:20;;;;;;;3.40;2.90;;;22.30;99.90;;;;;;20719918;28;20112;-55
2022/09/03 10:20:43;;;;;;;4.70;3.10;;;22.60;99.90;;;;;;20739469;28;20029;-54
2022/09/03 10:30:52;;;;;;;4.25;3.72;;;21.30;99.90;;;;;;20753017;28;20038;-55
2022/09/03 10:41:23;;;;;;;5.35;3.75;;;19.90;99.90;;;;;;20759847;28;20049;-55
2022/09/03 10:51:39;;;;;;;4.68;4.20;;;19.40;99.90;;;;;;20716283;28;20058;-57
2022/09/03 11:12:55;;;;;;;5.20;3.22;;;20.00;99.90;;;;;;20732769;28;20037;-54
2022/09/03 11:23:04;;;;;;;4.55;3.90;;;20.10;99.90;;;;;;20754006;28;20061;-59
2022/09/03 11:33:08;;;;;;;;;;;19.60;99.90;;;;;;20761930;28;20038;-54
2022/09/03 11:43:26;;;;;;;4.00;3.70;;;20.20;99.90;;;;;;20746021;28;19910;-56
2022/09/03 11:53:35;;;;;;;4.15;3.22;;;20.50;99.90;;;;;;20753151;28;20552;-53
2022/09/03 12:03:44;;;;;;;4.97;3.72;;;21.00;99.90;;;;;;20747310;28;20042;-52
2022/09/03 12:14:00;;;;;;;4.07;3.65;;;20.80;99.90;;;;;;20746534;28;20030;-55
2022/09/03 12:24:04;;;;;;;4.55;4.15;;;20.50;99.90;;;;;;20718958;28;20096;-55
2022/09/03 12:34:12;;;;;;;4.45;3.50;;;20.60;99.90;;;;;;20733561;28;20403;-55
2022/09/03 12:44:23;;;;;;;3.83;2.90;;;21.10;99.90;;;;;;20737042;28;20042;-57
2022/09/03 12:54:26;;;;;;;5.10;2.72;;;23.00;99.90;;;;;;20739141;28;20058;-57
2022/09/03 13:04:33;;;;;;;3.75;3.22;;;24.00;99.90;;;;;;20724603;28;20049;-57
2022/09/03 13:14:47;;;;;;;3.17;2.60;;;23.30;98.90;;;;;;20743691;28;20038;-57
2022/09/03 13:25:19;;;;;;;4.13;2.50;;;22.30;99.90;;;;;;20738189;28;20038;-61
2022/09/03 13:35:59;;;;;;;3.22;2.60;;;22.20;99.90;;;;;;20749505;28;20065;-56
2022/09/03 13:46:07;;;;;;;4.00;3.47;;;22.50;99.90;;;;;;20733309;28;20560;-55
2022/09/03 13:56:24;;;;;;;4.55;3.40;;;21.20;99.90;;;;;;20686556;28;20187;-56
2022/09/03 14:06:43;;;;;;;4.50;3.80;;;20.00;99.90;;;;;;20721286;28;20085;-55
2022/09/03 14:17:14;;;;;;;8.77;4.15;;;19.30;99.90;;;;;;20705459;28;20380;-59
2022/09/03 14:27:34;;;;;;;4.55;4.00;;;18.80;99.90;;;;;;20687113;28;20439;-55
2022/09/03 14:37:56;;;;;;;3.80;3.25;;;18.50;99.90;;;;;;20673113;28;20079;-60
2022/09/03 14:48:02;;;;;;;5.07;3.65;;;18.70;99.90;;;;;;20707208;28;20062;-55
2022/09/03 14:58:19;;;;;;;4.75;3.75;;;18.90;99.90;;;;;;20719621;28;20038;-54
2022/09/03 15:08:53;;;;;;;5.35;4.85;;;18.50;99.90;;;;;;20722603;28;20554;-54
2022/09/03 15:19:08;;;;;;;8.70;5.40;;;18.00;99.90;;;;;;20721122;28;20491;-54
2022/09/03 15:29:33;;;;;;;6.40;5.80;;;17.80;99.90;;;;;;20751092;28;20553;-54
2022/09/03 15:39:41;;;;;;;5.65;5.07;;;17.90;99.90;;;;;;20747499;28;20038;-55
2022/09/03 15:49:58;;;;;;;6.93;6.32;;;18.10;99.90;;;;;;20738164;28;20073;-53
2022/09/03 16:00:18;;;;;;;8.50;6.45;;;17.80;99.90;;;;;;20713509;28;20095;-59
2022/09/03 16:10:32;;;;;;;7.75;7.05;;;17.30;99.90;;;;;;20728292;28;20042;-59
2022/09/03 16:20:53;;;;;;;9.15;8.25;;;16.90;99.90;;;;;;20772634;28;20041;-54
2022/09/03 16:31:29;;;;;;;9.27;8.27;;;16.70;99.90;;;;;;20757082;28;20063;-55
2022/09/03 16:41:55;;;;;;;8.95;8.05;;;16.50;99.90;;;;;;20742360;28;20041;-51
2022/09/03 16:52:17;;;;;;;10.93;9.93;;;16.60;99.90;;;;;;20725086;28;20100;-55
2022/09/03 17:02:28;;;;;;;9.38;8.48;;;16.60;99.90;;;;;;20724033;28;20557;-54
2022/09/03 17:12:54;;;;;;;9.20;8.23;;;16.30;99.90;;;;;;20722881;28;20037;-54
2022/09/03 17:23:25;;;;;;;12.25;10.82;;;15.70;99.90;;;;;;20726185;28;20093;-53
2022/09/03 17:33:35;;;;;;;12.95;11.55;;;15.10;99.90;;;;;;20723792;28;20030;-55
2022/09/03 17:44:18;;;;;;;12.98;11.60;;;14.90;99.90;;;;;;20764190;28;20104;-53
2022/09/03 17:54:46;;;;;;;13.13;11.82;;;15.00;99.90;;;;;;20633597;28;20545;-53
2022/09/03 18:04:58;;;;;;;12.05;10.77;;;15.00;99.90;;;;;;20630195;28;20042;-58
2022/09/03 18:15:48;;;;;;;15.00;13.50;;;14.90;99.90;;;;;;20629330;28;20110;-54
2022/09/03 20:12:06;;;;;;;21.08;17.52;;;13.50;99.90;;;;;;20738799;28;20560;-55
2022/09/03 20:22:27;;;;;;;23.45;18.80;;;13.60;99.90;;;;;;20750797;28;20038;-53
2022/09/03 20:33:03;;;;;;;17.73;15.88;;;13.70;99.90;;;;;;20737688;28;20108;-58
2022/09/03 20:43:24;;;;;;;25.33;20.70;;;13.70;99.90;;;;;;20722325;28;20037;-53
2022/09/03 20:53:56;;;;;;;22.20;19.58;;;13.80;99.90;;;;;;20721477;28;20038;-53
2022/09/03 21:04:18;;;;;;;24.48;21.83;;;13.90;99.90;;;;;;20740980;28;20045;-54
2022/09/03 21:14:46;;;;;;;23.65;20.40;;;13.70;99.90;;;;;;20725031;28;20033;-58
2022/09/03 21:25:00;;;;;;;26.20;23.15;;;13.40;99.90;;;;;;20737990;28;20387;-54
2022/09/03 21:35:24;;;;;;;24.23;20.83;;;13.00;99.90;;;;;;20728033;28;20038;-53
2022/09/03 21:45:59;;;;;;;19.77;17.25;;;12.80;99.90;;;;;;20739424;28;20112;-58
2022/09/03 21:56:17;;;;;;;21.90;17.50;;;12.70;99.90;;;;;;20715900;28;20046;-56
2022/09/03 22:06:37;;;;;;;18.20;15.30;;;12.80;99.90;;;;;;20735775;28;20104;-56
2022/09/03 22:16:56;;;;;;;23.10;17.77;;;12.70;99.90;;;;;;20750873;28;20038;-56
2022/09/03 22:27:43;;;;;;;23.00;18.27;;;12.40;99.90;;;;;;20721290;28;20402;-60
2022/09/03 22:38:12;;;;;;;19.20;15.50;;;12.30;99.90;;;;;;20466437;29;20051;-56
2022/09/03 22:48:34;;;;;;;18.53;16.33;;;12.30;99.90;;;;;;20478742;28;20107;-60
2022/09/03 22:59:15;;;;;;;22.40;17.25;;;12.30;99.90;;;;;;20481816;28;20455;-61
2022/09/03 23:09:27;;;;;;;19.77;16.42;;;12.50;99.90;;;;;;20464523;28;20110;-53
2022/09/03 23:19:39;;;;;;;20.67;15.77;;;12.70;99.90;;;;;;20568224;28;20078;-54
2022/09/03 23:29:46;;;;;;;23.65;19.60;;;12.40;99.90;;;;;;20545944;28;20070;-54
2022/09/03 23:40:22;;;;;;;29.02;21.50;;;12.30;99.90;;;;;;20637012;28;20042;-58
2022/09/03 23:50:49;;;;;;;22.48;17.90;;;12.30;99.90;;;;;;20725234;28;20072;-60
